Time;durP1;ratioP1;P1;durP2;ratioP2;P2;SDS_P1;SDS_P2;PMS_P1;PMS_P2;Temp;Humidity;BMP_temperature;BMP_pressure;BME280_temperature;BME280_humidity;BME280_pressure;Samples;Min_cycle;Max_cycle;Signal;HPM_P1;HPM_P2
2023/10/03 00:00:00;;;;;;;9.52;5.55;;;20.30;74.40;;;;;;5053800;28;20306;-65
2023/10/03 00:02:28;;;;;;;6.88;5.07;;;20.30;74.50;;;;;;5054299;28;20223;-63
2023/10/03 00:05:23;;;;;;;;;;;;;;;;;;;;;
2023/10/03 00:07:52;;;;;;;7.30;5.20;;;20.30;74.40;;;;;;5039897;28;20237;-65
2023/10/03 00:17:19;;;;;;;6.82;4.90;;;20.30;74.40;;;;;;4992055;28;20249;-65
2023/10/03 00:19:46;;;;;;;7.55;5.22;;;20.30;74.50;;;;;;4991540;28;20233;-65
2023/10/03 00:22:25;;;;;;;;;;;;;;;;;;;;;
2023/10/03 00:25:08;;;;;;;7.55;5.03;;;20.30;74.50;;;;;;5053218;28;20691;-65
2023/10/03 00:27:52;;;;;;;6.65;5.05;;;20.30;74.50;;;;;;5050651;28;20685;-65
2023/10/03 00:30:23;;;;;;;10.02;4.80;;;20.30;74.50;;;;;;5051757;28;20673;-64
2023/10/03 00:33:12;;;;;;;6.78;5.18;;;20.30;74.50;;;;;;5053311;28;20334;-65
2023/10/03 00:36:02;;;;;;;7.68;5.00;;;20.30;74.60;;;;;;5053452;28;20194;-64
2023/10/03 00:38:34;;;;;;;7.72;4.88;;;20.30;74.50;;;;;;5049221;28;20230;-65
2023/10/03 00:41:21;;;;;;;7.35;4.90;;;20.30;74.50;;;;;;5052830;28;20692;-64
2023/10/03 00:44:04;;;;;;;6.18;4.72;;;20.30;74.50;;;;;;5006313;28;20196;-64
2023/10/03 00:46:33;;;;;;;9.40;4.70;;;20.30;74.50;;;;;;5052885;28;20310;-65
2023/10/03 00:49:08;;;;;;;7.30;5.28;;;20.30;74.50;;;;;;5053210;28;20187;-64
2023/10/03 00:52:05;;;;;;;6.95;4.53;;;20.30;74.50;;;;;;5053200;28;20618;-64
2023/10/03 00:54:34;;;;;;;7.72;4.93;;;20.30;74.50;;;;;;5053177;28;20199;-65
2023/10/03 00:57:20;;;;;;;8.48;4.68;;;20.30;74.50;;;;;;5052745;28;20265;-64
2023/10/03 00:59:52;;;;;;;6.15;4.70;;;20.30;74.50;;;;;;5052679;28;20192;-65
2023/10/03 01:02:21;;;;;;;6.43;4.70;;;20.30;74.50;;;;;;5052597;28;20280;-64
2023/10/03 01:04:57;;;;;;;6.43;4.75;;;20.30;74.50;;;;;;5052515;28;20233;-65
2023/10/03 01:07:24;;;;;;;5.88;4.28;;;20.30;74.50;;;;;;5052197;28;20226;-65
2023/10/03 01:09:55;;;;;;;6.35;4.43;;;20.30;74.50;;;;;;5052537;28;20253;-65
2023/10/03 01:12:22;;;;;;;6.65;4.25;;;20.30;74.40;;;;;;5052843;28;20219;-64
2023/10/03 01:14:51;;;;;;;7.63;4.57;;;20.30;74.40;;;;;;5052725;28;20264;-65
2023/10/03 01:17:20;;;;;;;7.28;4.30;;;20.30;74.40;;;;;;5052717;28;20219;-63
2023/10/03 01:19:48;;;;;;;7.05;4.30;;;20.30;74.30;;;;;;5032489;28;20196;-65
2023/10/03 01:22:16;;;;;;;5.63;3.97;;;20.30;74.30;;;;;;5032916;28;20240;-65
2023/10/03 01:24:56;;;;;;;7.22;4.55;;;20.30;74.30;;;;;;5032674;28;20199;-65
2023/10/03 01:38:22;;;;;;;4.50;3.53;;;20.30;74.20;;;;;;5031294;28;20228;-65
2023/10/03 01:44:26;;;;;;;4.97;3.25;;;20.20;74.00;;;;;;4931997;29;20209;-65
2023/10/03 01:47:04;;;;;;;5.05;3.22;;;20.30;74.10;;;;;;4960663;28;20845;-65
2023/10/03 01:52:15;;;;;;;4.03;3.30;;;20.20;73.90;;;;;;4894858;29;20222;-65
2023/10/03 01:54:53;;;;;;;4.68;2.97;;;20.20;73.90;;;;;;4895002;29;20225;-64
2023/10/03 02:00:05;;;;;;;4.68;2.88;;;20.30;73.90;;;;;;4863785;29;20211;-64
2023/10/03 02:02:33;;;;;;;4.88;3.15;;;20.30;73.80;;;;;;4894814;29;20237;-64
2023/10/03 02:05:01;;;;;;;4.45;2.70;;;20.30;73.80;;;;;;4894763;29;20201;-64
2023/10/03 02:07:39;;;;;;;;;;;;;;;;;;;;;
2023/10/03 02:10:08;;;;;;;4.60;2.88;;;20.20;73.70;;;;;;4863608;29;20673;-65
2023/10/03 02:13:11;;;;;;;3.70;2.70;;;20.20;73.70;;;;;;4894681;29;20233;-65
2023/10/03 02:15:40;;;;;;;3.80;2.58;;;20.20;73.60;;;;;;4932284;29;20632;-64
2023/10/03 02:18:09;;;;;;;4.13;2.55;;;20.30;73.70;;;;;;4932430;29;20299;-65
2023/10/03 02:23:24;;;;;;;5.32;2.63;;;20.20;73.50;;;;;;4942304;28;20233;-65
2023/10/03 02:25:56;;;;;;;5.43;2.28;;;20.30;73.50;;;;;;4970743;28;20202;-65
2023/10/03 02:28:26;;;;;;;6.40;2.50;;;20.20;73.40;;;;;;4971010;28;20234;-65
2023/10/03 02:30:56;;;;;;;4.05;2.30;;;20.30;73.50;;;;;;5031672;28;20235;-65
2023/10/03 02:33:24;;;;;;;3.90;2.60;;;20.20;73.40;;;;;;5032198;28;20252;-65
2023/10/03 02:35:54;;;;;;;4.15;2.20;;;20.20;73.20;;;;;;5031628;28;20483;-65
2023/10/03 02:38:29;;;;;;;4.47;2.17;;;20.20;73.20;;;;;;5032140;28;20306;-65
2023/10/03 02:51:49;;;;;;;3.35;1.77;;;20.20;73.10;;;;;;5035182;28;20271;-65
2023/10/03 02:54:18;;;;;;;5.43;2.15;;;20.20;73.00;;;;;;5024208;28;20196;-65
2023/10/03 03:10:48;;;;;;;4.13;2.08;;;20.10;72.80;;;;;;4955678;28;20179;-64
2023/10/03 03:13:24;;;;;;;2.95;1.90;;;20.10;72.80;;;;;;4954643;28;20230;-65
2023/10/03 03:15:54;;;;;;;3.72;2.28;;;20.10;72.80;;;;;;4954409;29;20191;-65
2023/10/03 03:19:14;;;;;;;3.28;2.00;;;20.10;72.70;;;;;;5029616;28;20330;-65
2023/10/03 03:21:42;;;;;;;3.30;2.30;;;20.10;72.70;;;;;;5049651;28;20231;-65
2023/10/03 03:24:10;;;;;;;3.05;2.13;;;20.10;72.70;;;;;;5054646;28;20199;-64
2023/10/03 03:26:58;;;;;;;4.10;2.13;;;20.10;72.60;;;;;;5054439;28;20192;-65
2023/10/03 03:30:33;;;;;;;1.95;1.65;;;20.10;72.60;;;;;;5054671;28;20199;-65
2023/10/03 03:32:51;;;;;;;5.03;2.40;;;20.10;72.50;;;;;;5054378;28;20227;-65
2023/10/03 03:35:19;;;;;;;3.80;2.33;;;20.10;72.50;;;;;;5054356;28;20188;-65
2023/10/03 03:37:48;;;;;;;3.88;2.15;;;20.10;72.40;;;;;;5054353;28;20215;-65
2023/10/03 03:40:26;;;;;;;3.25;2.22;;;20.10;72.40;;;;;;5054582;28;20197;-64
2023/10/03 03:43:13;;;;;;;5.78;2.45;;;20.10;72.30;;;;;;5054190;28;20771;-65
2023/10/03 03:46:03;;;;;;;4.25;2.42;;;20.10;72.20;;;;;;5054156;28;20279;-64
2023/10/03 04:06:42;;;;;;;4.03;2.42;;;20.10;71.70;;;;;;4909318;29;20210;-65
2023/10/03 04:09:09;;;;;;;4.85;2.28;;;20.10;71.70;;;;;;4934592;29;20291;-66
2023/10/03 04:11:37;;;;;;;5.22;2.95;;;20.10;71.70;;;;;;4963765;28;20292;-65
2023/10/03 04:14:05;;;;;;;5.13;2.50;;;20.10;71.70;;;;;;4992143;28;20202;-65
2023/10/03 04:16:38;;;;;;;3.60;2.40;;;20.10;71.70;;;;;;4991912;28;20190;-65
2023/10/03 04:19:07;;;;;;;4.72;2.65;;;20.10;71.70;;;;;;4992024;28;20233;-65
2023/10/03 04:21:40;;;;;;;4.93;2.45;;;20.10;72.50;;;;;;4992097;28;20221;-65
2023/10/03 04:24:11;;;;;;;4.75;2.75;;;20.10;71.70;;;;;;4991975;28;20216;-65
2023/10/03 04:26:41;;;;;;;5.63;2.90;;;20.10;71.70;;;;;;4991719;28;20190;-65
2023/10/03 04:29:25;;;;;;;5.57;2.85;;;20.10;71.70;;;;;;4991897;28;20194;-65
2023/10/03 04:31:53;;;;;;;4.82;2.80;;;20.10;71.50;;;;;;4991656;28;20228;-64
2023/10/03 04:34:23;;;;;;;6.03;3.00;;;20.10;71.50;;;;;;4988450;28;20201;-64
2023/10/03 04:39:34;;;;;;;7.03;3.15;;;20.10;71.30;;;;;;5052287;28;20199;-63
2023/10/03 04:42:07;;;;;;;5.90;2.80;;;20.10;71.30;;;;;;5053250;28;20235;-65
2023/10/03 04:44:34;;;;;;;4.75;2.78;;;20.10;71.20;;;;;;5053337;28;20195;-64
2023/10/03 04:47:04;;;;;;;6.05;3.15;;;20.10;71.20;;;;;;5052863;28;20306;-64
2023/10/03 04:49:43;;;;;;;6.57;2.70;;;20.10;71.20;;;;;;5052938;28;20282;-65
2023/10/03 04:52:10;;;;;;;5.22;2.72;;;20.10;71.00;;;;;;5053179;28;20219;-65
2023/10/03 04:54:44;;;;;;;6.10;2.78;;;20.00;70.90;;;;;;5052886;28;20733;-65
2023/10/03 04:57:14;;;;;;;7.63;2.88;;;20.00;70.80;;;;;;5052722;28;20215;-65
2023/10/03 04:59:42;;;;;;;5.85;2.92;;;20.10;70.80;;;;;;5052731;28;20199;-64
2023/10/03 05:02:11;;;;;;;7.32;2.90;;;20.00;70.70;;;;;;5052963;28;20313;-65
2023/10/03 05:04:41;;;;;;;6.38;2.78;;;20.00;70.60;;;;;;5052921;28;20194;-65
2023/10/03 05:07:15;;;;;;;5.10;2.60;;;20.10;70.60;;;;;;5052887;28;20222;-65
2023/10/03 05:09:54;;;;;;;5.28;2.72;;;20.00;70.50;;;;;;5051977;28;20202;-62
2023/10/03 05:12:34;;;;;;;;;;;;;;;;;;;;;
2023/10/03 05:18:48;;;;;;;;;;;;;;;;;;;;;
2023/10/03 05:21:39;;;;;;;6.95;3.30;;;20.10;70.40;;;;;;4955344;28;20203;-65
2023/10/03 05:24:29;;;;;;;7.32;3.00;;;20.00;70.30;;;;;;4971405;28;20203;-64
2023/10/03 05:27:24;;;;;;;5.60;2.67;;;20.00;70.40;;;;;;4942751;28;20226;-63
2023/10/03 05:36:16;;;;;;;5.32;2.75;;;20.00;70.10;;;;;;4952088;28;20622;-63
2023/10/03 05:38:45;;;;;;;6.97;3.40;;;20.00;70.20;;;;;;4952161;29;20226;-64
2023/10/03 05:44:37;;;;;;;5.43;3.08;;;20.00;70.10;;;;;;4932917;29;20228;-64
2023/10/03 05:47:05;;;;;;;7.07;2.90;;;20.00;69.80;;;;;;4932773;29;20335;-63
2023/10/03 05:52:34;;;;;;;8.93;3.33;;;20.00;70.00;;;;;;4921957;29;20238;-64
2023/10/03 05:55:04;;;;;;;6.43;2.92;;;20.00;69.80;;;;;;4951872;29;20207;-64
2023/10/03 05:57:43;;;;;;;7.40;3.33;;;20.00;69.90;;;;;;4951756;29;20278;-63
2023/10/03 06:00:16;;;;;;;6.50;2.67;;;20.00;69.80;;;;;;4951936;29;20199;-65
2023/10/03 06:05:27;;;;;;;7.78;3.42;;;20.00;69.70;;;;;;4950721;29;20209;-65
2023/10/03 06:07:54;;;;;;;6.53;3.40;;;20.00;69.70;;;;;;4991464;28;20211;-65
2023/10/03 06:10:23;;;;;;;7.63;3.55;;;20.00;69.70;;;;;;5052130;28;20200;-63
2023/10/03 06:12:54;;;;;;;7.00;3.60;;;20.00;69.60;;;;;;5052083;28;20215;-65
2023/10/03 06:15:23;;;;;;;7.53;3.55;;;20.00;69.60;;;;;;5052036;28;20561;-65
2023/10/03 06:17:52;;;;;;;6.82;3.08;;;20.00;69.60;;;;;;5051569;28;20219;-65
2023/10/03 06:20:19;;;;;;;6.78;2.92;;;20.00;69.50;;;;;;5052151;28;20191;-65
2023/10/03 06:22:47;;;;;;;6.40;3.40;;;20.00;69.50;;;;;;5055920;28;20234;-64
2023/10/03 06:25:15;;;;;;;8.77;3.72;;;20.00;69.50;;;;;;5055669;28;20287;-64
2023/10/03 06:27:47;;;;;;;6.10;3.40;;;20.00;69.40;;;;;;5055913;28;20216;-65
2023/10/03 06:39:48;;;;;;;6.45;3.20;;;20.00;69.00;;;;;;5055552;28;20220;-61
2023/10/03 06:42:16;;;;;;;8.27;4.07;;;19.90;69.10;;;;;;5066366;28;20243;-62
2023/10/03 06:45:13;;;;;;;8.13;3.40;;;19.90;69.00;;;;;;5054947;28;20207;-63
2023/10/03 06:47:41;;;;;;;6.57;3.38;;;20.00;68.90;;;;;;5055970;28;20306;-64
2023/10/03 06:50:09;;;;;;;7.07;3.25;;;20.00;69.00;;;;;;5061359;28;20206;-63
2023/10/03 06:55:20;;;;;;;6.57;3.58;;;20.00;69.00;;;;;;5000767;28;20303;-64
2023/10/03 06:57:53;;;;;;;6.45;3.53;;;20.00;69.00;;;;;;5002685;28;20221;-65
2023/10/03 07:03:14;;;;;;;6.80;3.28;;;20.00;68.90;;;;;;5069039;28;20261;-64
2023/10/03 07:08:51;;;;;;;7.45;3.20;;;20.00;69.00;;;;;;5026712;28;20233;-66
2023/10/03 07:21:16;;;;;;;5.97;2.65;;;20.10;69.10;;;;;;4969622;28;20237;-65
2023/10/03 07:23:59;;;;;;;;;;;;;;;;;;;;;
2023/10/03 07:26:47;;;;;;;6.30;3.15;;;20.10;68.90;;;;;;4967882;28;20700;-66
2023/10/03 07:29:44;;;;;;;10.18;2.80;;;20.20;69.00;;;;;;4963269;28;20227;-65
2023/10/03 07:32:14;;;;;;;4.88;2.95;;;20.20;68.90;;;;;;4983388;28;20215;-65
2023/10/03 07:35:10;;;;;;;6.38;3.42;;;20.20;68.90;;;;;;5051856;28;20306;-65
2023/10/03 07:37:40;;;;;;;9.65;2.92;;;20.30;68.80;;;;;;5039616;28;20238;-66
2023/10/03 07:40:09;;;;;;;6.32;2.90;;;20.30;68.80;;;;;;5051895;28;20192;-63
2023/10/03 07:42:38;;;;;;;7.15;3.33;;;20.30;68.70;;;;;;5039619;28;20235;-65
2023/10/03 07:45:28;;;;;;;5.20;2.85;;;20.40;68.70;;;;;;5037485;28;20208;-65
2023/10/03 07:47:57;;;;;;;7.43;3.28;;;20.40;68.80;;;;;;5046768;28;20314;-65
2023/10/03 07:50:47;;;;;;;9.32;3.30;;;20.50;69.00;;;;;;5049005;28;20714;-66
2023/10/03 07:56:25;;;;;;;10.90;3.58;;;20.60;69.00;;;;;;4946650;28;20448;-66
2023/10/03 07:58:56;;;;;;;10.38;2.97;;;20.70;68.30;;;;;;5040743;28;20227;-65
2023/10/03 08:05:03;;;;;;;10.70;2.97;;;20.90;68.20;;;;;;4897825;29;20313;-65
2023/10/03 08:23:55;;;;;;;7.70;2.90;;;20.70;68.90;;;;;;4796152;29;20332;-66
2023/10/03 08:26:25;;;;;;;9.18;2.92;;;20.70;68.00;;;;;;4793401;29;20210;-65
2023/10/03 08:29:20;;;;;;;;;;;;;;;;;;;;;
2023/10/03 08:34:49;;;;;;;8.88;3.10;;;20.70;68.00;;;;;;4798280;29;20221;-65
2023/10/03 08:37:21;;;;;;;7.10;3.40;;;20.80;67.90;;;;;;4838134;29;20207;-66
2023/10/03 08:40:19;;;;;;;8.23;3.03;;;20.80;67.60;;;;;;4853193;29;20204;-65
2023/10/03 08:43:03;;;;;;;5.78;2.63;;;20.80;67.40;;;;;;4923783;29;20718;-61
2023/10/03 08:45:48;;;;;;;;;;;;;;;;;;;;;
2023/10/03 08:55:38;;;;;;;6.22;2.78;;;20.80;67.10;;;;;;4982010;28;20197;-62
2023/10/03 09:08:31;;;;;;;5.45;2.80;;;20.80;66.80;;;;;;5037790;28;20667;-63
2023/10/03 09:11:00;;;;;;;7.43;3.00;;;20.80;66.80;;;;;;5028389;28;20192;-63
2023/10/03 09:13:32;;;;;;;6.45;2.65;;;20.80;66.80;;;;;;5035525;28;20276;-62
2023/10/03 09:16:08;;;;;;;8.50;3.20;;;20.90;66.90;;;;;;5045341;28;20215;-62
2023/10/03 09:18:56;;;;;;;4.25;2.25;;;20.90;66.90;;;;;;5045786;28;20306;-63
2023/10/03 09:21:27;;;;;;;6.40;2.20;;;20.90;66.90;;;;;;5060175;28;20234;-62
2023/10/03 09:24:17;;;;;;;6.28;2.58;;;20.90;66.90;;;;;;5061630;28;20790;-63
2023/10/03 09:27:43;;;;;;;;;;;;;;;;;;;;;
2023/10/03 09:33:49;;;;;;;5.57;2.35;;;20.90;67.10;;;;;;4995670;28;20240;-62
2023/10/03 09:36:19;;;;;;;7.68;2.15;;;20.90;66.20;;;;;;5002213;28;20205;-63
2023/10/03 09:39:07;;;;;;;5.20;2.40;;;20.90;66.20;;;;;;5002063;28;20221;-60
2023/10/03 09:41:38;;;;;;;5.43;2.13;;;20.90;66.00;;;;;;4996884;28;20282;-62
2023/10/03 09:44:07;;;;;;;3.78;2.13;;;20.90;66.00;;;;;;5000470;28;20808;-62
2023/10/03 09:46:39;;;;;;;5.90;2.58;;;21.00;66.00;;;;;;5002414;28;20203;-62
2023/10/03 09:49:19;;;;;;;6.03;2.33;;;21.00;66.00;;;;;;4992848;28;20225;-63
2023/10/03 09:54:53;;;;;;;6.28;2.30;;;20.90;65.60;;;;;;5000480;28;20232;-63
2023/10/03 10:00:21;;;;;;;6.57;2.67;;;21.00;65.60;;;;;;4989348;28;20240;-63
2023/10/03 10:03:25;;;;;;;3.78;2.17;;;21.00;65.60;;;;;;4988658;28;20805;-62
2023/10/03 10:06:28;;;;;;;4.05;2.10;;;21.00;65.50;;;;;;5047213;28;20327;-62
2023/10/03 10:09:03;;;;;;;4.75;2.08;;;21.00;65.30;;;;;;5051066;28;20306;-62
2023/10/03 10:11:31;;;;;;;4.43;1.90;;;21.00;65.20;;;;;;5057772;28;20206;-62
2023/10/03 10:14:14;;;;;;;3.90;2.05;;;21.00;65.00;;;;;;5066786;28;20222;-63
2023/10/03 10:17:21;;;;;;;6.95;2.00;;;21.00;64.70;;;;;;5066086;28;20219;-63
2023/10/03 10:23:16;;;;;;;6.40;2.30;;;21.10;64.60;;;;;;4986214;28;20232;-63
2023/10/03 10:28:56;;;;;;;5.43;2.08;;;21.10;64.30;;;;;;5062496;28;20802;-62
2023/10/03 10:31:45;;;;;;;5.63;1.75;;;21.00;64.00;;;;;;4998472;28;20203;-62
2023/10/03 10:34:46;;;;;;;5.90;2.05;;;21.10;64.10;;;;;;5066868;28;20733;-63
2023/10/03 10:37:18;;;;;;;8.32;2.28;;;21.10;63.80;;;;;;5056931;28;20213;-62
2023/10/03 10:40:23;;;;;;;6.63;1.70;;;21.10;63.90;;;;;;5064990;28;20232;-63
2023/10/03 10:43:21;;;;;;;6.35;2.10;;;21.10;63.80;;;;;;5066776;28;20223;-63
2023/10/03 10:45:50;;;;;;;5.82;2.28;;;21.10;63.60;;;;;;5059376;28;20214;-59
2023/10/03 10:48:43;;;;;;;4.93;1.80;;;21.20;63.70;;;;;;5065116;28;20221;-60
2023/10/03 10:51:13;;;;;;;4.35;1.90;;;21.20;63.50;;;;;;5065418;28;20199;-60
2023/10/03 10:53:43;;;;;;;5.40;2.03;;;21.10;63.40;;;;;;5065504;28;20214;-60
2023/10/03 10:56:11;;;;;;;3.22;1.65;;;21.10;63.40;;;;;;5065556;28;20210;-60
2023/10/03 10:59:01;;;;;;;5.15;2.20;;;21.10;63.30;;;;;;5066488;28;20225;-60
2023/10/03 11:01:29;;;;;;;3.67;1.75;;;21.10;63.30;;;;;;5066945;28;20276;-60
2023/10/03 11:04:25;;;;;;;4.43;1.80;;;21.10;63.30;;;;;;5076196;28;20241;-60
2023/10/03 11:06:53;;;;;;;4.75;1.60;;;21.10;63.30;;;;;;5066165;28;21076;-60
2023/10/03 11:09:20;;;;;;;7.30;1.80;;;21.10;63.20;;;;;;5069050;28;20314;-61
2023/10/03 11:11:49;;;;;;;4.63;1.85;;;21.10;63.10;;;;;;5070074;28;20200;-60
2023/10/03 11:14:29;;;;;;;5.20;1.95;;;21.10;63.00;;;;;;5069745;28;20222;-60
2023/10/03 11:16:57;;;;;;;5.13;1.70;;;21.10;62.80;;;;;;5069232;28;20194;-60
2023/10/03 11:19:26;;;;;;;3.58;2.05;;;21.10;63.00;;;;;;5065640;28;20226;-58
2023/10/03 11:21:53;;;;;;;4.57;1.75;;;21.10;63.10;;;;;;5058538;28;20233;-60
2023/10/03 11:24:21;;;;;;;7.72;1.88;;;21.10;63.00;;;;;;5069441;28;20317;-60
2023/10/03 11:26:51;;;;;;;4.20;1.88;;;21.10;63.10;;;;;;5062274;28;20270;-61
2023/10/03 11:29:37;;;;;;;6.25;1.85;;;21.10;63.00;;;;;;5070588;28;20219;-60
2023/10/03 11:32:05;;;;;;;6.35;1.85;;;21.10;62.80;;;;;;5069792;28;20285;-60
2023/10/03 11:34:36;;;;;;;3.97;1.85;;;21.10;62.90;;;;;;5070322;28;20227;-60
2023/10/03 11:37:04;;;;;;;6.20;1.90;;;21.10;62.60;;;;;;5070550;28;20191;-60
2023/10/03 11:39:38;;;;;;;5.75;2.03;;;21.10;62.70;;;;;;5070418;28;20226;-60
2023/10/03 11:42:09;;;;;;;8.80;2.05;;;21.10;62.70;;;;;;5070824;28;20194;-60
2023/10/03 11:44:37;;;;;;;4.72;1.90;;;21.10;62.70;;;;;;5070287;28;20332;-60
2023/10/03 11:47:05;;;;;;;7.18;1.90;;;21.10;62.50;;;;;;5070067;28;20191;-60
2023/10/03 11:49:33;;;;;;;5.97;1.73;;;21.10;62.50;;;;;;5069476;28;20219;-67
2023/10/03 11:52:05;;;;;;;5.45;1.75;;;21.10;62.30;;;;;;5066932;28;20198;-65
2023/10/03 11:54:35;;;;;;;3.80;1.73;;;21.10;62.10;;;;;;5069901;28;20224;-65
2023/10/03 11:57:06;;;;;;;8.55;1.95;;;21.10;62.30;;;;;;5066005;28;20206;-64
2023/10/03 11:59:36;;;;;;;7.72;1.85;;;21.20;62.50;;;;;;5069487;28;20229;-62
2023/10/03 12:02:06;;;;;;;5.93;1.70;;;21.20;62.10;;;;;;5064713;28;20256;-61
2023/10/03 12:08:23;;;;;;;6.30;1.80;;;21.20;62.10;;;;;;4965554;28;20217;-61
2023/10/03 12:11:07;;;;;;;6.70;1.40;;;21.20;61.50;;;;;;4966936;28;20223;-62
2023/10/03 12:13:55;;;;;;;5.25;1.73;;;21.20;61.70;;;;;;4967342;28;20202;-62
2023/10/03 12:16:26;;;;;;;6.95;1.80;;;21.20;61.70;;;;;;4893804;28;20209;-61
2023/10/03 12:18:54;;;;;;;5.93;1.80;;;21.30;61.60;;;;;;4958988;28;20298;-61
2023/10/03 12:21:26;;;;;;;4.78;1.70;;;21.20;61.60;;;;;;4968121;28;20298;-62
2023/10/03 12:29:40;;;;;;;7.13;1.83;;;21.30;61.60;;;;;;4876942;29;20251;-61
2023/10/03 12:32:18;;;;;;;9.13;1.90;;;21.30;61.60;;;;;;4884506;29;20220;-61
2023/10/03 12:34:48;;;;;;;5.47;1.83;;;21.30;61.60;;;;;;4963000;28;20218;-61
2023/10/03 12:43:36;;;;;;;5.75;2.00;;;21.40;61.70;;;;;;4852930;29;20334;-61
2023/10/03 12:46:14;;;;;;;7.18;1.70;;;21.50;61.80;;;;;;4924766;29;20207;-63
2023/10/03 12:52:34;;;;;;;;;;;;;;;;;;;;;
2023/10/03 12:55:12;;;;;;;5.80;2.72;;;21.50;61.40;;;;;;4806328;29;20249;-61
2023/10/03 12:58:20;;;;;;;;;;;;;;;;;;;;;
2023/10/03 13:00:54;;;;;;;7.55;2.50;;;21.50;61.20;;;;;;4860598;29;20230;-62
2023/10/03 13:06:20;;;;;;;7.07;2.53;;;21.50;61.20;;;;;;4901549;29;20228;-62
2023/10/03 13:08:59;;;;;;;6.25;2.15;;;21.50;61.10;;;;;;4891407;29;20217;-62
2023/10/03 13:17:50;;;;;;;3.22;1.48;;;21.50;60.70;;;;;;4889363;29;20654;-62
2023/10/03 13:20:24;;;;;;;6.60;2.08;;;21.60;60.70;;;;;;4931401;28;20233;-61
2023/10/03 13:26:01;;;;;;;;;;;;;;;;;;;;;
2023/10/03 13:28:30;;;;;;;4.53;1.50;;;21.50;60.50;;;;;;5000786;28;20782;-62
2023/10/03 13:34:02;;;;;;;9.25;1.88;;;21.50;60.50;;;;;;5049151;28;20210;-62
2023/10/03 13:36:33;;;;;;;3.42;1.45;;;21.50;60.20;;;;;;5046513;28;20318;-60
2023/10/03 13:39:05;;;;;;;5.57;1.80;;;21.50;60.60;;;;;;5052754;28;20211;-59
2023/10/03 13:41:45;;;;;;;4.15;1.80;;;21.60;60.70;;;;;;5054985;28;20191;-63
2023/10/03 13:50:57;;;;;;;6.70;1.70;;;21.60;60.50;;;;;;4973899;28;20217;-61
2023/10/03 13:57:32;;;;;;;7.10;1.38;;;21.60;60.50;;;;;;4895249;29;20224;-60
2023/10/03 14:00:01;;;;;;;4.90;1.52;;;21.60;60.50;;;;;;4865460;29;20224;-60
2023/10/03 14:02:44;;;;;;;5.47;1.63;;;21.50;60.30;;;;;;4896313;29;20856;-62
2023/10/03 14:11:46;;;;;;;3.40;1.08;;;21.50;60.20;;;;;;4872229;29;20304;-64
2023/10/03 14:14:17;;;;;;;6.50;1.67;;;21.50;60.30;;;;;;4891499;29;20209;-61
2023/10/03 14:16:45;;;;;;;2.63;1.30;;;21.50;60.30;;;;;;4890745;29;20265;-61
2023/10/03 14:19:13;;;;;;;4.13;1.20;;;21.50;60.20;;;;;;4898343;29;20201;-62
2023/10/03 14:21:43;;;;;;;7.82;1.60;;;21.50;60.10;;;;;;4900961;29;20235;-61
2023/10/03 14:24:34;;;;;;;6.00;1.30;;;21.50;60.10;;;;;;4901085;28;20232;-62
2023/10/03 14:37:06;;;;;;;11.45;1.92;;;21.40;59.80;;;;;;5020209;28;20215;-62
2023/10/03 14:39:33;;;;;;;4.78;1.77;;;21.40;59.80;;;;;;5028038;28;20204;-60
2023/10/03 14:42:01;;;;;;;7.07;1.73;;;21.40;60.00;;;;;;5028654;28;20311;-62
2023/10/03 14:58:14;;;;;;;5.07;1.50;;;21.40;59.70;;;;;;4857118;29;20285;-61
2023/10/03 15:11:01;;;;;;;4.15;1.70;;;21.30;59.70;;;;;;4798940;29;20236;-61
2023/10/03 15:19:58;;;;;;;10.43;1.60;;;21.30;59.60;;;;;;4793518;29;20711;-61
2023/10/03 15:25:34;;;;;;;9.38;1.63;;;21.30;59.60;;;;;;4815579;29;20263;-61
2023/10/03 15:32:01;;;;;;;5.43;1.70;;;21.30;59.50;;;;;;4868376;29;20994;-61
2023/10/03 15:38:35;;;;;;;6.55;1.98;;;21.30;59.50;;;;;;4782742;29;21188;-62
2023/10/03 15:51:37;;;;;;;6.18;1.60;;;21.30;59.50;;;;;;4801083;29;20303;-61
2023/10/03 15:54:16;;;;;;;5.47;1.60;;;21.30;59.60;;;;;;4838612;29;20306;-62
2023/10/03 15:59:57;;;;;;;4.95;1.45;;;21.20;59.80;;;;;;4836499;29;20215;-62
2023/10/03 16:02:34;;;;;;;6.35;1.80;;;21.30;59.90;;;;;;4841674;29;20836;-62
2023/10/03 16:05:20;;;;;;;5.32;1.67;;;21.30;59.90;;;;;;4823542;29;20234;-62
2023/10/03 16:08:10;;;;;;;6.60;2.13;;;21.30;60.00;;;;;;4835573;29;20305;-63
2023/10/03 16:10:41;;;;;;;6.20;1.88;;;21.30;59.70;;;;;;4826641;29;20230;-63
2023/10/03 16:20:21;;;;;;;;;;;;;;;;;;;;;
2023/10/03 16:22:50;;;;;;;6.10;1.80;;;21.30;59.50;;;;;;4878586;29;20249;-63
2023/10/03 16:25:21;;;;;;;7.57;1.90;;;21.30;59.60;;;;;;4877751;29;20237;-62
2023/10/03 16:27:48;;;;;;;11.45;2.33;;;21.30;59.60;;;;;;4892585;29;20308;-63
2023/10/03 16:36:23;;;;;;;5.20;1.83;;;21.30;59.70;;;;;;4908788;29;20231;-63
2023/10/03 16:38:58;;;;;;;8.23;1.95;;;21.30;59.70;;;;;;4904734;29;20208;-62
2023/10/03 16:42:36;;;;;;;;;;;;;;;;;;;;;
2023/10/03 16:45:09;;;;;;;8.93;2.35;;;21.30;59.70;;;;;;4903262;29;20721;-62
2023/10/03 16:50:22;;;;;;;5.47;1.90;;;21.30;59.60;;;;;;4935548;28;20629;-63
2023/10/03 16:52:50;;;;;;;5.65;2.17;;;21.40;59.60;;;;;;4950350;28;20276;-62
2023/10/03 16:55:17;;;;;;;7.63;1.98;;;21.30;59.40;;;;;;4950544;28;20373;-60
2023/10/03 16:57:45;;;;;;;6.07;1.85;;;21.30;59.40;;;;;;4955444;28;20203;-61
2023/10/03 17:00:16;;;;;;;7.32;1.80;;;21.30;59.40;;;;;;4951392;28;20199;-59
2023/10/03 17:02:44;;;;;;;6.18;1.70;;;21.30;59.40;;;;;;4944059;28;20285;-63
2023/10/03 17:05:13;;;;;;;6.00;1.88;;;21.30;59.20;;;;;;4939870;28;20230;-65
2023/10/03 17:07:42;;;;;;;8.68;1.73;;;21.30;59.20;;;;;;4953882;28;20210;-66
2023/10/03 17:10:11;;;;;;;6.65;2.05;;;21.30;59.30;;;;;;4939984;28;20229;-61
2023/10/03 17:12:40;;;;;;;9.02;2.20;;;21.30;59.40;;;;;;4952906;28;20203;-63
2023/10/03 17:15:09;;;;;;;8.48;2.03;;;21.30;59.70;;;;;;4966670;28;20242;-61
2023/10/03 17:17:37;;;;;;;6.78;1.88;;;21.30;59.40;;;;;;5032709;28;20676;-59
2023/10/03 17:20:05;;;;;;;5.78;2.17;;;21.30;59.30;;;;;;5032387;28;21122;-60
2023/10/03 17:22:33;;;;;;;11.02;1.90;;;21.30;59.40;;;;;;5050418;28;20234;-57
2023/10/03 17:25:31;;;;;;;5.55;1.73;;;21.30;59.40;;;;;;5053533;28;20234;-58
2023/10/03 17:28:32;;;;;;;6.18;2.20;;;21.30;59.40;;;;;;5053193;28;20214;-58
2023/10/03 17:31:02;;;;;;;5.78;2.15;;;21.30;59.50;;;;;;4968935;28;20232;-58
2023/10/03 17:33:30;;;;;;;7.05;1.90;;;21.30;59.60;;;;;;4972027;28;20361;-64
2023/10/03 17:36:08;;;;;;;5.88;2.05;;;21.30;59.60;;;;;;4968616;28;20578;-60
2023/10/03 17:44:57;;;;;;;;;;;;;;;;;;;;;
2023/10/03 18:28:05;;;;;;;7.63;2.08;;;21.00;60.40;;;;;;4831382;29;21260;-63
2023/10/03 18:30:35;;;;;;;7.82;1.90;;;21.10;60.60;;;;;;4877975;29;20336;-63
2023/10/03 18:43:05;;;;;;;4.43;2.00;;;21.00;60.50;;;;;;4890000;29;20243;-65
2023/10/03 18:45:56;;;;;;;8.05;2.15;;;21.00;60.60;;;;;;4894166;29;20234;-65
2023/10/03 18:48:26;;;;;;;7.45;2.30;;;21.00;60.30;;;;;;4887521;29;20290;-62
2023/10/03 18:53:46;;;;;;;7.45;2.10;;;21.00;60.20;;;;;;4964523;28;20649;-62
2023/10/03 19:05:29;;;;;;;6.13;1.67;;;20.80;60.30;;;;;;4773741;29;20268;-62
2023/10/03 19:08:05;;;;;;;6.45;1.90;;;20.80;60.40;;;;;;4869688;29;20209;-62
2023/10/03 19:13:58;;;;;;;6.32;2.00;;;20.80;60.50;;;;;;4876708;29;20218;-63
2023/10/03 19:20:07;;;;;;;6.65;1.83;;;20.70;60.50;;;;;;4876770;29;20239;-61
2023/10/03 19:22:35;;;;;;;5.07;2.03;;;20.70;60.40;;;;;;4880553;29;20577;-63
2023/10/03 19:25:07;;;;;;;5.55;1.75;;;20.60;60.40;;;;;;4922419;29;20239;-63
2023/10/03 19:27:36;;;;;;;6.30;1.80;;;20.70;60.50;;;;;;4931377;29;20594;-65
2023/10/03 19:30:12;;;;;;;5.22;1.70;;;20.70;60.50;;;;;;4932046;29;20196;-65
2023/10/03 19:32:40;;;;;;;5.43;1.77;;;20.70;60.50;;;;;;4933397;29;20227;-65
2023/10/03 19:35:08;;;;;;;4.72;1.75;;;20.60;60.40;;;;;;4933010;28;20221;-64
2023/10/03 19:37:41;;;;;;;8.85;1.98;;;20.60;60.40;;;;;;5044671;28;20227;-64
2023/10/03 19:40:10;;;;;;;4.07;1.90;;;20.60;60.40;;;;;;5052844;28;20227;-64
2023/10/03 19:42:48;;;;;;;7.07;1.90;;;20.60;60.30;;;;;;5054447;28;20212;-64
2023/10/03 19:55:09;;;;;;;;;;;;;;;;;;;;;
2023/10/03 20:00:46;;;;;;;5.00;1.77;;;20.50;60.20;;;;;;5031879;28;20196;-65
2023/10/03 20:03:13;;;;;;;6.43;1.77;;;20.50;60.00;;;;;;5033174;28;20559;-64
2023/10/03 20:08:46;;;;;;;8.18;2.13;;;20.50;60.10;;;;;;4972567;28;20210;-64
2023/10/03 20:21:45;;;;;;;6.47;1.83;;;20.50;59.90;;;;;;5053350;28;20206;-64
2023/10/03 20:24:16;;;;;;;5.10;1.70;;;20.50;59.80;;;;;;5033177;28;20200;-64
2023/10/03 20:33:40;;;;;;;5.38;2.30;;;20.50;59.80;;;;;;5010926;28;20224;-65
2023/10/03 20:36:20;;;;;;;4.50;1.70;;;20.40;59.70;;;;;;5009939;28;20216;-64
2023/10/03 20:38:49;;;;;;;6.88;2.03;;;20.40;59.80;;;;;;5011109;28;20189;-64
2023/10/03 20:41:26;;;;;;;8.07;1.88;;;20.40;59.80;;;;;;5010666;28;20227;-65
2023/10/03 20:44:00;;;;;;;8.20;2.05;;;20.40;59.90;;;;;;4962101;28;20236;-64
2023/10/03 20:56:27;;;;;;;5.32;1.40;;;20.40;59.70;;;;;;4842219;29;20771;-65
2023/10/03 20:58:56;;;;;;;6.30;2.05;;;20.40;59.70;;;;;;4858007;29;20254;-64